createdAt,value
2022-10-06T00:00:12.926Z,0.00
2022-10-06T00:01:12.947Z,0.00
2022-10-06T00:02:12.952Z,0.00
2022-10-06T00:03:12.893Z,0.00
2022-10-06T00:04:12.889Z,0.00
2022-10-06T00:05:12.875Z,0.00
2022-10-06T00:06:12.878Z,0.00
2022-10-06T00:07:12.866Z,0.00
2022-10-06T00:08:12.843Z,0.00
2022-10-06T00:09:12.837Z,0.00
2022-10-06T00:10:12.864Z,0.00
2022-10-06T00:11:12.825Z,0.00
2022-10-06T00:12:12.804Z,0.00
2022-10-06T00:13:12.796Z,0.00
2022-10-06T00:14:12.780Z,0.00
2022-10-06T00:15:12.775Z,0.00
2022-10-06T00:16:12.833Z,0.00
2022-10-06T00:17:12.749Z,0.00
2022-10-06T00:18:12.737Z,0.00
2022-10-06T00:19:12.735Z,0.00
2022-10-06T00:20:12.723Z,0.00
2022-10-06T00:21:12.723Z,0.00
2022-10-06T00:22:12.703Z,0.00
2022-10-06T00:23:12.693Z,0.00
2022-10-06T00:24:12.682Z,0.00
2022-10-06T00:25:12.667Z,0.00
2022-10-06T00:26:12.671Z,0.00
2022-10-06T00:27:12.645Z,0.00
2022-10-06T00:28:12.774Z,0.00
2022-10-06T00:29:12.628Z,0.00
2022-10-06T00:30:12.616Z,0.00
2022-10-06T00:31:12.703Z,0.00
2022-10-06T00:32:12.597Z,0.00
2022-10-06T00:33:12.606Z,0.00
2022-10-06T00:34:12.593Z,0.00
2022-10-06T00:35:12.574Z,0.00
2022-10-06T00:36:12.677Z,0.00
2022-10-06T00:37:12.559Z,0.00
2022-10-06T00:38:12.539Z,0.00
2022-10-06T00:39:12.530Z,0.00
2022-10-06T00:40:12.512Z,0.00
2022-10-06T00:41:12.517Z,0.00
2022-10-06T00:42:12.498Z,0.00
2022-10-06T00:43:12.490Z,0.00
2022-10-06T00:44:12.475Z,0.00
2022-10-06T00:45:12.464Z,0.00
2022-10-06T00:46:12.523Z,0.00
2022-10-06T00:47:12.451Z,0.00
2022-10-06T00:48:12.439Z,0.00
2022-10-06T00:49:12.429Z,0.00
2022-10-06T00:50:12.418Z,0.00
2022-10-06T00:51:12.434Z,0.00
2022-10-06T00:52:12.397Z,0.00
2022-10-06T00:53:12.420Z,0.00
2022-10-06T00:54:12.381Z,0.00
2022-10-06T00:55:12.366Z,0.00
2022-10-06T00:56:12.378Z,0.00
2022-10-06T00:57:12.344Z,0.00
2022-10-06T00:58:12.337Z,0.00
2022-10-06T00:59:12.325Z,0.00
2022-10-06T01:00:12.314Z,0.00
2022-10-06T01:01:12.348Z,0.00
2022-10-06T01:02:12.296Z,0.00
2022-10-06T01:03:12.284Z,0.00
2022-10-06T01:04:12.271Z,0.00
2022-10-06T01:05:12.265Z,0.00
2022-10-06T01:06:12.267Z,0.00
2022-10-06T01:07:12.241Z,0.00
2022-10-06T01:08:12.235Z,0.00
2022-10-06T01:09:12.239Z,0.00
2022-10-06T01:10:12.210Z,0.00
2022-10-06T01:11:12.214Z,0.00
2022-10-06T01:12:12.204Z,0.00
2022-10-06T01:13:12.194Z,0.00
2022-10-06T01:14:12.170Z,0.00
2022-10-06T01:15:12.200Z,0.00
2022-10-06T01:16:12.210Z,0.00
2022-10-06T01:17:12.142Z,0.00
2022-10-06T01:18:12.138Z,0.00
2022-10-06T01:19:12.155Z,0.00
2022-10-06T01:20:12.113Z,0.00
2022-10-06T01:21:12.116Z,0.00
2022-10-06T01:22:12.096Z,0.00
2022-10-06T01:23:12.083Z,0.00
2022-10-06T01:24:12.071Z,0.00
2022-10-06T01:25:12.061Z,0.00
2022-10-06T01:26:12.062Z,0.00
2022-10-06T01:27:12.044Z,0.00
2022-10-06T01:28:12.053Z,0.00
2022-10-06T01:29:12.020Z,0.00
2022-10-06T01:30:12.011Z,0.00
2022-10-06T01:31:12.051Z,0.00
2022-10-06T01:32:12.000Z,0.00
2022-10-06T01:33:11.999Z,0.00
2022-10-06T01:34:11.971Z,0.00
2022-10-06T01:35:11.964Z,0.00
2022-10-06T01:36:11.961Z,0.00
2022-10-06T01:37:11.941Z,0.00
2022-10-06T01:38:11.936Z,0.00
2022-10-06T01:39:11.906Z,0.00
2022-10-06T01:40:12.910Z,0.00
2022-10-06T01:41:11.911Z,0.00
2022-10-06T01:42:11.893Z,0.00
2022-10-06T01:43:11.875Z,0.00
2022-10-06T01:44:11.863Z,0.00
2022-10-06T01:45:11.848Z,0.00
2022-10-06T01:46:12.951Z,0.00
2022-10-06T01:47:11.825Z,0.00
2022-10-06T01:48:12.826Z,0.00
2022-10-06T01:49:11.817Z,0.00
2022-10-06T01:50:11.805Z,0.00
2022-10-06T01:51:11.810Z,0.00
2022-10-06T01:52:11.817Z,0.00
2022-10-06T01:53:11.772Z,0.00
2022-10-06T01:54:11.768Z,0.00
2022-10-06T01:55:11.758Z,0.00
2022-10-06T01:56:11.758Z,0.00
2022-10-06T01:57:11.740Z,0.00
2022-10-06T01:58:11.724Z,0.00
2022-10-06T01:59:11.713Z,0.00
2022-10-06T02:00:11.703Z,0.00
2022-10-06T02:01:11.757Z,0.00
2022-10-06T02:02:11.688Z,0.00
2022-10-06T02:03:11.670Z,0.00
2022-10-06T02:04:11.704Z,0.00
2022-10-06T02:05:11.654Z,0.00
2022-10-06T02:06:11.754Z,0.00
2022-10-06T02:07:11.635Z,0.00
2022-10-06T02:08:11.623Z,0.00
2022-10-06T02:09:11.605Z,0.00
2022-10-06T02:10:11.611Z,0.00
2022-10-06T02:11:11.599Z,0.00
2022-10-06T02:12:11.591Z,0.00
2022-10-06T02:13:11.595Z,0.00
2022-10-06T02:14:11.567Z,0.00
2022-10-06T02:15:11.547Z,0.00
2022-10-06T02:16:11.594Z,0.00
2022-10-06T02:17:11.530Z,0.00
2022-10-06T02:18:11.516Z,0.00
2022-10-06T02:19:11.507Z,0.00
2022-10-06T02:20:11.493Z,0.00
2022-10-06T02:21:11.495Z,0.00
2022-10-06T02:22:11.475Z,0.00
2022-10-06T02:23:11.463Z,0.00
2022-10-06T02:24:11.452Z,0.00
2022-10-06T02:25:11.441Z,0.00
2022-10-06T02:26:11.441Z,0.00
2022-10-06T02:27:11.421Z,0.00
2022-10-06T02:28:11.462Z,0.00
2022-10-06T02:29:11.404Z,0.00
2022-10-06T02:30:11.407Z,0.00
2022-10-06T02:31:11.455Z,0.00
2022-10-06T02:32:11.366Z,0.00
2022-10-06T02:33:11.359Z,0.00
2022-10-06T02:34:11.350Z,0.00
2022-10-06T02:35:11.339Z,0.00
2022-10-06T02:36:11.365Z,0.00
2022-10-06T02:37:11.341Z,0.00
2022-10-06T02:38:11.303Z,0.00
2022-10-06T02:39:11.294Z,0.00
2022-10-06T02:40:11.291Z,0.00
2022-10-06T02:41:11.282Z,0.00
2022-10-06T02:42:11.270Z,0.00
2022-10-06T02:43:11.297Z,0.00
2022-10-06T02:44:11.254Z,0.00
2022-10-06T02:45:11.236Z,0.00
2022-10-06T02:46:11.245Z,0.00
2022-10-06T02:47:43.122Z,0.00
2022-10-06T02:48:11.212Z,0.00
2022-10-06T02:49:11.195Z,0.00
2022-10-06T02:50:11.188Z,0.00
2022-10-06T02:51:11.184Z,0.00
2022-10-06T02:52:11.169Z,0.00
2022-10-06T02:53:11.154Z,0.00
2022-10-06T02:54:11.140Z,0.00
2022-10-06T02:55:11.134Z,0.00
2022-10-06T02:56:11.133Z,0.00
2022-10-06T02:57:11.102Z,0.00
2022-10-06T02:58:11.127Z,0.00
2022-10-06T02:59:11.085Z,0.00
2022-10-06T03:00:11.075Z,0.00
2022-10-06T03:01:11.071Z,0.00
2022-10-06T03:02:11.177Z,0.00
2022-10-06T03:03:11.045Z,0.00
2022-10-06T03:04:11.038Z,0.00
2022-10-06T03:05:11.026Z,0.00
2022-10-06T03:06:11.025Z,0.00
2022-10-06T03:07:11.010Z,0.00
2022-10-06T03:08:10.997Z,0.00
2022-10-06T03:09:10.986Z,0.00
2022-10-06T03:10:10.977Z,0.00
2022-10-06T03:11:10.991Z,0.00
2022-10-06T03:12:10.971Z,0.00
2022-10-06T03:13:10.942Z,0.00
2022-10-06T03:14:10.933Z,0.00
2022-10-06T03:15:10.922Z,0.00
2022-10-06T03:16:10.965Z,0.00
2022-10-06T03:17:10.905Z,0.00
2022-10-06T03:18:10.890Z,0.00
2022-10-06T03:19:10.875Z,0.00
2022-10-06T03:20:10.872Z,0.00
2022-10-06T03:21:10.877Z,0.00
2022-10-06T03:22:10.852Z,0.00
2022-10-06T03:23:13.571Z,0.00
2022-10-06T03:24:11.830Z,0.00
2022-10-06T03:25:10.820Z,0.00
2022-10-06T03:26:10.873Z,0.00
2022-10-06T03:27:10.793Z,0.00
2022-10-06T03:28:10.832Z,0.00
2022-10-06T03:29:11.980Z,0.00
2022-10-06T03:30:11.763Z,0.00
2022-10-06T03:31:10.821Z,0.00
2022-10-06T03:32:10.747Z,0.00
2022-10-06T03:33:10.733Z,0.00
2022-10-06T03:34:10.718Z,0.00
2022-10-06T03:35:10.711Z,0.00
2022-10-06T03:36:10.707Z,0.00
2022-10-06T03:37:10.683Z,0.00
2022-10-06T03:38:10.686Z,0.00
2022-10-06T03:39:10.666Z,0.00
2022-10-06T03:40:10.693Z,0.00
2022-10-06T03:41:10.657Z,0.00
2022-10-06T03:42:10.639Z,0.00
2022-10-06T03:43:10.625Z,0.00
2022-10-06T03:44:10.616Z,0.00
2022-10-06T03:45:10.606Z,0.00
2022-10-06T03:46:10.654Z,0.00
2022-10-06T03:47:14.710Z,0.00
2022-10-06T03:48:12.574Z,0.00
2022-10-06T03:49:10.565Z,0.00
2022-10-06T03:50:10.556Z,0.00
2022-10-06T03:51:10.557Z,0.00
2022-10-06T03:52:10.530Z,0.00
2022-10-06T03:53:10.523Z,0.00
2022-10-06T03:54:10.521Z,0.00
2022-10-06T03:55:10.502Z,0.00
2022-10-06T03:56:10.502Z,0.00
2022-10-06T03:57:10.480Z,0.00
2022-10-06T03:58:10.531Z,0.00
2022-10-06T03:59:10.464Z,0.00
2022-10-06T04:00:10.454Z,0.00
2022-10-06T04:01:10.514Z,0.00
2022-10-06T04:02:10.491Z,0.00
2022-10-06T04:03:10.415Z,0.00
2022-10-06T04:04:10.408Z,0.00
2022-10-06T04:05:10.401Z,0.00
2022-10-06T04:06:10.517Z,0.00
2022-10-06T04:07:10.373Z,0.00
2022-10-06T04:08:10.365Z,0.00
2022-10-06T04:09:14.952Z,0.00
2022-10-06T04:10:12.345Z,0.00
2022-10-06T04:11:10.348Z,0.00
2022-10-06T04:12:10.324Z,0.00
2022-10-06T04:13:10.319Z,0.00
2022-10-06T04:14:10.307Z,0.00
2022-10-06T04:15:10.292Z,0.00
2022-10-06T04:16:10.340Z,0.00
2022-10-06T04:17:10.272Z,0.00
2022-10-06T04:18:10.263Z,0.00
2022-10-06T04:19:10.261Z,0.00
2022-10-06T04:20:10.244Z,0.00
2022-10-06T04:21:10.243Z,0.00
2022-10-06T04:22:10.222Z,0.00
2022-10-06T04:23:10.214Z,0.00
2022-10-06T04:24:10.220Z,0.00
2022-10-06T04:25:10.190Z,0.00
2022-10-06T04:26:10.189Z,0.00
2022-10-06T04:27:10.167Z,0.00
2022-10-06T04:28:10.202Z,0.00
2022-10-06T04:29:10.144Z,0.00
2022-10-06T04:30:10.138Z,0.00
2022-10-06T04:31:10.167Z,0.00
2022-10-06T04:32:10.115Z,0.00
2022-10-06T04:33:10.107Z,0.00
2022-10-06T04:34:10.092Z,0.00
2022-10-06T04:35:10.078Z,0.00
2022-10-06T04:36:10.093Z,0.00
2022-10-06T04:37:10.077Z,0.00
2022-10-06T04:38:10.045Z,0.00
2022-10-06T04:39:10.041Z,0.00
2022-10-06T04:40:10.034Z,0.00
2022-10-06T04:41:10.026Z,0.00
2022-10-06T04:42:10.009Z,0.00
2022-10-06T04:43:10.000Z,0.00
2022-10-06T04:44:09.983Z,0.00
2022-10-06T04:45:09.973Z,0.00
2022-10-06T04:46:37.708Z,0.00
2022-10-06T04:47:11.956Z,0.00
2022-10-06T04:48:10.256Z,0.00
2022-10-06T04:49:16.181Z,0.00
2022-10-06T04:50:11.923Z,0.00
2022-10-06T04:51:09.923Z,0.00
2022-10-06T04:52:09.897Z,0.00
2022-10-06T04:53:10.897Z,0.00
2022-10-06T04:54:09.884Z,0.00
2022-10-06T04:55:09.876Z,0.00
2022-10-06T04:56:09.871Z,0.00
2022-10-06T04:57:09.852Z,0.00
2022-10-06T04:58:09.840Z,0.00
2022-10-06T04:59:09.834Z,0.00
2022-10-06T05:00:14.608Z,0.00
2022-10-06T05:01:11.859Z,4.00
2022-10-06T05:02:09.867Z,0.00
2022-10-06T05:03:09.788Z,0.00
2022-10-06T05:04:09.797Z,4.00
2022-10-06T05:05:09.772Z,0.00
2022-10-06T05:06:09.776Z,4.00
2022-10-06T05:07:09.751Z,4.00
2022-10-06T05:08:09.740Z,4.00
2022-10-06T05:09:09.725Z,4.00
2022-10-06T05:10:09.726Z,4.00
2022-10-06T05:11:13.652Z,4.00
2022-10-06T05:12:10.698Z,8.00
2022-10-06T05:13:09.687Z,8.00
2022-10-06T05:14:09.682Z,12.00
2022-10-06T05:15:09.672Z,16.00
2022-10-06T05:16:09.744Z,16.00
2022-10-06T05:17:09.653Z,16.00
2022-10-06T05:18:09.683Z,24.00
2022-10-06T05:19:09.629Z,24.00
2022-10-06T05:20:09.618Z,28.00
2022-10-06T05:21:09.642Z,32.00
2022-10-06T05:22:09.595Z,36.00
2022-10-06T05:23:09.633Z,40.00
2022-10-06T05:24:09.575Z,44.00
2022-10-06T05:25:09.563Z,56.00
2022-10-06T05:26:09.566Z,60.00
2022-10-06T05:27:09.540Z,68.00
2022-10-06T05:28:09.601Z,76.00
2022-10-06T05:29:09.520Z,84.00
2022-10-06T05:30:09.512Z,92.00
2022-10-06T05:31:09.515Z,100.00
2022-10-06T05:32:09.568Z,104.00
2022-10-06T05:33:09.478Z,120.00
2022-10-06T05:34:09.477Z,128.00
2022-10-06T05:35:09.456Z,136.00
2022-10-06T05:36:09.455Z,148.00
2022-10-06T05:37:09.438Z,160.00
2022-10-06T05:38:09.426Z,172.00
2022-10-06T05:39:09.414Z,184.00
2022-10-06T05:40:09.409Z,196.00
2022-10-06T05:41:09.447Z,212.00
2022-10-06T05:42:09.392Z,220.00
2022-10-06T05:43:09.385Z,236.00
2022-10-06T05:44:09.365Z,248.00
2022-10-06T05:45:09.353Z,268.00
2022-10-06T05:46:09.413Z,284.00
2022-10-06T05:47:09.332Z,296.00
2022-10-06T05:48:09.324Z,316.00
2022-10-06T05:49:10.372Z,332.00
2022-10-06T05:50:09.304Z,348.00
2022-10-06T05:51:09.305Z,364.00
2022-10-06T05:52:09.285Z,380.00
2022-10-06T05:53:09.274Z,400.00
2022-10-06T05:54:09.268Z,416.00
2022-10-06T05:55:09.253Z,432.00
2022-10-06T05:56:09.252Z,448.00
2022-10-06T05:57:09.238Z,472.00
2022-10-06T05:58:09.221Z,492.00
2022-10-06T05:59:09.208Z,516.00
2022-10-06T06:00:09.205Z,536.00
2022-10-06T06:01:09.215Z,556.00
2022-10-06T06:02:09.293Z,580.00
2022-10-06T06:03:09.167Z,600.00
2022-10-06T06:04:09.160Z,628.00
2022-10-06T06:05:09.143Z,644.00
2022-10-06T06:06:09.158Z,672.00
2022-10-06T06:07:09.121Z,692.00
2022-10-06T06:08:09.112Z,712.00
2022-10-06T06:09:09.102Z,724.00
2022-10-06T06:10:09.092Z,732.00
2022-10-06T06:11:09.094Z,744.00
2022-10-06T06:12:09.074Z,764.00
2022-10-06T06:13:09.076Z,784.00
2022-10-06T06:14:09.050Z,788.00
2022-10-06T06:15:09.066Z,928.00
2022-10-06T06:16:09.083Z,1640.00
2022-10-06T06:17:09.022Z,1592.00
2022-10-06T06:18:09.012Z,1264.00
2022-10-06T06:19:09.002Z,1048.00
2022-10-06T06:20:08.995Z,912.00
2022-10-06T06:21:08.979Z,848.00
2022-10-06T06:22:08.980Z,864.00
2022-10-06T06:23:08.961Z,892.00
2022-10-06T06:24:08.946Z,904.00
2022-10-06T06:25:08.931Z,916.00
2022-10-06T06:26:08.928Z,932.00
2022-10-06T06:27:08.934Z,920.00
2022-10-06T06:28:08.936Z,928.00
2022-10-06T06:29:08.902Z,928.00
2022-10-06T06:30:08.905Z,932.00
2022-10-06T06:31:08.916Z,956.00
2022-10-06T06:32:08.883Z,968.00
2022-10-06T06:33:08.872Z,976.00
2022-10-06T06:34:08.849Z,996.00
2022-10-06T06:35:08.837Z,1012.00
2022-10-06T06:36:08.827Z,1020.00
2022-10-06T06:37:14.180Z,1012.00
2022-10-06T06:38:10.809Z,1044.00
2022-10-06T06:39:08.794Z,1132.00
2022-10-06T06:40:08.789Z,1044.00
2022-10-06T06:41:08.772Z,1044.00
2022-10-06T06:42:08.772Z,1060.00
2022-10-06T06:43:08.754Z,1080.00
2022-10-06T06:44:08.744Z,1080.00
2022-10-06T06:45:08.735Z,1084.00
2022-10-06T06:46:08.795Z,1108.00
2022-10-06T06:47:10.455Z,1236.00
2022-10-06T06:48:08.705Z,1084.00
2022-10-06T06:49:08.689Z,1232.00
2022-10-06T06:50:08.684Z,1308.00
2022-10-06T06:51:08.676Z,1228.00
2022-10-06T06:52:08.677Z,1260.00
2022-10-06T06:53:10.729Z,1172.00
2022-10-06T06:54:08.645Z,1184.00
2022-10-06T06:55:08.631Z,1200.00
2022-10-06T06:56:08.618Z,1204.00
2022-10-06T06:57:08.619Z,1216.00
2022-10-06T06:58:08.606Z,1228.00
2022-10-06T06:59:08.586Z,2252.00
2022-10-06T07:00:08.575Z,3392.00
2022-10-06T07:01:08.590Z,2072.00
2022-10-06T07:02:08.603Z,1304.00
2022-10-06T07:03:08.543Z,1300.00
2022-10-06T07:04:08.536Z,1300.00
2022-10-06T07:05:08.523Z,1316.00
2022-10-06T07:06:08.514Z,1328.00
2022-10-06T07:07:08.512Z,1344.00
2022-10-06T07:08:08.496Z,1364.00
2022-10-06T07:09:08.485Z,1364.00
2022-10-06T07:10:08.473Z,1380.00
2022-10-06T07:11:08.465Z,1428.00
2022-10-06T07:12:08.463Z,1432.00
2022-10-06T07:13:08.448Z,1472.00
2022-10-06T07:14:08.437Z,1452.00
2022-10-06T07:15:08.423Z,1444.00
2022-10-06T07:16:08.555Z,1448.00
2022-10-06T07:17:08.417Z,1468.00
2022-10-06T07:18:08.401Z,1476.00
2022-10-06T07:19:08.389Z,1484.00
2022-10-06T07:20:08.367Z,1488.00
2022-10-06T07:21:08.359Z,1504.00
2022-10-06T07:22:08.356Z,1512.00
2022-10-06T07:23:08.342Z,1536.00
2022-10-06T07:24:08.322Z,1560.00
2022-10-06T07:25:08.326Z,1576.00
2022-10-06T07:26:08.305Z,1720.00
2022-10-06T07:27:08.304Z,1640.00
2022-10-06T07:28:08.300Z,1604.00
2022-10-06T07:29:08.266Z,1788.00
2022-10-06T07:30:08.261Z,2564.00
2022-10-06T07:31:08.294Z,2432.00
2022-10-06T07:32:08.254Z,2564.00
2022-10-06T07:33:08.230Z,2140.00
2022-10-06T07:34:08.225Z,1668.00
2022-10-06T07:35:08.217Z,1660.00
2022-10-06T07:36:08.220Z,1704.00
2022-10-06T07:37:08.205Z,1708.00
2022-10-06T07:38:08.279Z,1724.00
2022-10-06T07:39:08.169Z,1764.00
2022-10-06T07:40:08.157Z,1728.00
2022-10-06T07:41:18.831Z,1744.00
2022-10-06T07:42:10.152Z,1772.00
2022-10-06T07:43:08.132Z,1856.00
2022-10-06T07:44:08.353Z,1860.00
2022-10-06T07:45:08.106Z,2008.00
2022-10-06T07:46:08.143Z,2216.00
2022-10-06T07:47:08.096Z,2668.00
2022-10-06T07:48:08.079Z,3088.00
2022-10-06T07:49:08.067Z,7432.00
2022-10-06T07:50:08.059Z,9884.00
2022-10-06T07:51:08.042Z,6492.00
2022-10-06T07:52:08.106Z,5400.00
2022-10-06T07:53:08.064Z,3736.00
2022-10-06T07:54:08.013Z,9308.00
2022-10-06T07:55:08.005Z,16928.00
2022-10-06T07:56:07.994Z,16164.00
2022-10-06T07:57:07.998Z,15968.00
2022-10-06T07:58:07.978Z,17824.00
2022-10-06T07:59:07.963Z,18528.00
2022-10-06T08:00:07.975Z,12084.00
2022-10-06T08:01:07.945Z,6208.00
2022-10-06T08:02:08.001Z,4172.00
2022-10-06T08:03:08.017Z,6364.00
2022-10-06T08:04:07.911Z,6068.00
2022-10-06T08:05:07.904Z,3156.00
2022-10-06T08:06:07.896Z,3096.00
2022-10-06T08:07:07.904Z,3192.00
2022-10-06T08:08:07.871Z,2996.00
2022-10-06T08:09:07.860Z,3736.00
2022-10-06T08:10:07.853Z,4092.00
2022-10-06T08:11:08.198Z,5700.00
2022-10-06T08:12:07.941Z,12704.00
2022-10-06T08:13:07.825Z,21760.00
2022-10-06T08:14:07.811Z,3900.00
2022-10-06T08:15:08.027Z,6736.00
2022-10-06T08:16:07.842Z,3960.00
2022-10-06T08:17:07.790Z,4184.00
2022-10-06T08:18:21.339Z,4316.00
2022-10-06T08:19:09.758Z,4700.00
2022-10-06T08:20:07.749Z,3600.00
2022-10-06T08:21:07.754Z,3900.00
2022-10-06T08:22:07.771Z,31808.00
2022-10-06T08:23:07.714Z,3880.00
2022-10-06T08:24:07.710Z,24864.00
2022-10-06T08:25:07.845Z,3984.00
2022-10-06T08:26:07.698Z,4696.00
2022-10-06T08:27:07.696Z,4496.00
2022-10-06T08:28:07.722Z,4896.00
2022-10-06T08:29:07.674Z,4540.00
2022-10-06T08:30:07.647Z,3456.00
2022-10-06T08:31:07.669Z,9352.00
2022-10-06T08:32:07.677Z,10748.00
2022-10-06T08:33:07.619Z,3728.00
2022-10-06T08:34:11.630Z,5108.00
2022-10-06T08:35:08.598Z,5440.00
2022-10-06T08:36:07.588Z,3560.00
2022-10-06T08:37:19.962Z,3908.00
2022-10-06T08:38:09.571Z,3948.00
2022-10-06T08:39:07.555Z,4212.00
2022-10-06T08:40:07.548Z,4080.00
2022-10-06T08:41:07.540Z,4052.00
2022-10-06T08:42:07.544Z,3636.00
2022-10-06T08:43:07.513Z,3680.00
2022-10-06T08:44:07.522Z,3792.00
2022-10-06T08:45:07.498Z,3932.00
2022-10-06T08:46:07.603Z,3952.00
2022-10-06T08:47:39.395Z,4020.00
2022-10-06T08:48:07.468Z,3988.00
2022-10-06T08:49:07.461Z,4224.00
2022-10-06T08:50:07.450Z,3964.00
2022-10-06T08:51:07.450Z,4016.00
2022-10-06T08:52:07.444Z,3924.00
2022-10-06T08:53:07.418Z,3712.00
2022-10-06T08:54:07.414Z,4540.00
2022-10-06T08:55:07.391Z,4864.00
2022-10-06T08:56:08.400Z,4060.00
2022-10-06T08:57:07.393Z,3928.00
2022-10-06T08:58:07.441Z,3704.00
2022-10-06T08:59:07.359Z,3356.00
2022-10-06T09:00:07.348Z,3832.00
2022-10-06T09:01:07.431Z,3496.00
2022-10-06T09:02:07.479Z,3076.00
2022-10-06T09:03:07.323Z,8916.00
2022-10-06T09:04:07.310Z,11076.00
2022-10-06T09:05:07.302Z,24000.00
2022-10-06T09:06:07.291Z,3460.00
2022-10-06T09:07:11.439Z,3000.00
2022-10-06T09:08:08.270Z,2712.00
2022-10-06T09:09:07.260Z,2704.00
2022-10-06T09:10:07.252Z,3088.00
2022-10-06T09:11:07.243Z,16752.00
2022-10-06T09:12:07.297Z,3612.00
2022-10-06T09:13:07.223Z,3000.00
2022-10-06T09:14:07.210Z,6528.00
2022-10-06T09:15:07.202Z,2948.00
2022-10-06T09:16:07.257Z,6932.00
2022-10-06T09:17:07.195Z,3228.00
2022-10-06T09:18:07.171Z,3308.00
2022-10-06T09:19:09.109Z,4072.00
2022-10-06T09:20:08.148Z,3268.00
2022-10-06T09:21:07.143Z,4840.00
2022-10-06T09:22:07.157Z,2968.00
2022-10-06T09:23:07.118Z,3976.00
2022-10-06T09:24:07.117Z,4120.00
2022-10-06T09:25:07.097Z,4496.00
2022-10-06T09:26:07.090Z,3704.00
2022-10-06T09:27:07.092Z,4156.00
2022-10-06T09:28:07.087Z,3252.00
2022-10-06T09:29:07.085Z,3372.00
2022-10-06T09:30:07.050Z,4092.00
2022-10-06T09:31:07.084Z,3600.00
2022-10-06T09:32:07.029Z,3712.00
2022-10-06T09:33:08.020Z,4004.00
2022-10-06T09:34:07.010Z,3772.00
2022-10-06T09:35:07.028Z,3504.00
2022-10-06T09:36:06.996Z,3884.00
2022-10-06T09:37:06.988Z,3896.00
2022-10-06T09:38:09.083Z,3932.00
2022-10-06T09:39:07.964Z,3960.00
2022-10-06T09:40:06.955Z,4040.00
2022-10-06T09:41:06.945Z,3988.00
2022-10-06T09:42:06.946Z,3984.00
2022-10-06T09:43:06.916Z,3632.00
2022-10-06T09:44:06.910Z,3856.00
2022-10-06T09:45:06.901Z,3596.00
2022-10-06T09:46:06.908Z,3912.00
2022-10-06T09:47:06.912Z,4028.00
2022-10-06T09:48:06.874Z,3588.00
2022-10-06T09:49:06.864Z,3544.00
2022-10-06T09:50:06.864Z,3888.00
2022-10-06T09:51:06.843Z,3328.00
2022-10-06T09:52:06.852Z,3912.00
2022-10-06T09:53:06.824Z,3436.00
2022-10-06T09:54:06.809Z,3616.00
2022-10-06T09:55:06.803Z,4432.00
2022-10-06T09:56:06.795Z,4512.00
2022-10-06T09:57:06.840Z,4332.00
2022-10-06T09:58:06.776Z,4356.00
2022-10-06T09:59:06.771Z,4504.00
2022-10-06T10:00:06.751Z,4524.00
2022-10-06T10:01:06.822Z,3736.00
2022-10-06T10:02:06.744Z,4452.00
2022-10-06T10:03:06.857Z,4652.00
2022-10-06T10:04:20.011Z,4076.00
2022-10-06T10:05:08.702Z,4600.00
2022-10-06T10:06:06.691Z,4728.00
2022-10-06T10:07:06.695Z,5072.00
2022-10-06T10:08:06.674Z,5064.00
2022-10-06T10:09:06.663Z,4872.00
2022-10-06T10:10:06.654Z,5064.00
2022-10-06T10:11:06.641Z,5220.00
2022-10-06T10:12:06.660Z,5360.00
2022-10-06T10:13:06.625Z,5316.00
2022-10-06T10:14:06.615Z,5384.00
2022-10-06T10:15:06.603Z,5504.00
2022-10-06T10:16:06.942Z,5644.00
2022-10-06T10:17:06.591Z,5724.00
2022-10-06T10:18:06.579Z,5800.00
2022-10-06T10:19:06.568Z,5988.00
2022-10-06T10:20:06.550Z,5988.00
2022-10-06T10:21:06.556Z,6056.00
2022-10-06T10:22:06.543Z,6092.00
2022-10-06T10:23:06.523Z,6176.00
2022-10-06T10:24:06.515Z,6304.00
2022-10-06T10:25:06.505Z,5916.00
2022-10-06T10:26:06.490Z,6376.00
2022-10-06T10:27:06.495Z,5112.00
2022-10-06T10:28:06.527Z,6872.00
2022-10-06T10:29:06.465Z,2892.00
2022-10-06T10:30:06.456Z,2920.00
2022-10-06T10:31:06.512Z,6952.00
2022-10-06T10:32:06.441Z,6660.00
2022-10-06T10:33:06.433Z,6716.00
2022-10-06T10:34:12.582Z,6980.00
2022-10-06T10:35:07.422Z,4756.00
2022-10-06T10:36:06.388Z,7000.00
2022-10-06T10:37:06.378Z,7248.00
2022-10-06T10:38:07.615Z,7016.00
2022-10-06T10:39:06.380Z,6816.00
2022-10-06T10:40:06.349Z,6728.00
2022-10-06T10:41:06.344Z,6992.00
2022-10-06T10:42:06.331Z,6628.00
2022-10-06T10:43:06.329Z,7364.00
2022-10-06T10:44:06.313Z,7312.00
2022-10-06T10:45:06.302Z,7312.00
2022-10-06T10:46:06.298Z,7216.00
2022-10-06T10:47:06.347Z,7304.00
2022-10-06T10:48:06.281Z,7112.00
2022-10-06T10:49:06.261Z,7368.00
2022-10-06T10:50:06.257Z,7488.00
2022-10-06T10:51:06.245Z,7508.00
2022-10-06T10:52:06.229Z,7348.00
2022-10-06T10:53:06.260Z,7388.00
2022-10-06T10:54:06.210Z,7368.00
2022-10-06T10:55:06.198Z,7280.00
2022-10-06T10:56:06.181Z,7140.00
2022-10-06T10:57:06.175Z,7064.00
2022-10-06T10:58:06.180Z,7040.00
2022-10-06T10:59:06.157Z,7028.00
2022-10-06T11:00:06.146Z,6940.00
2022-10-06T11:01:06.255Z,6736.00
2022-10-06T11:02:06.204Z,6604.00
2022-10-06T11:03:06.127Z,6500.00
2022-10-06T11:04:06.108Z,6524.00
2022-10-06T11:05:06.102Z,6676.00
2022-10-06T11:06:06.092Z,6700.00
2022-10-06T11:07:06.079Z,6372.00
2022-10-06T11:08:06.076Z,6020.00
2022-10-06T11:09:06.054Z,5836.00
2022-10-06T11:10:06.045Z,5860.00
2022-10-06T11:11:06.036Z,5864.00
2022-10-06T11:12:06.024Z,5792.00
2022-10-06T11:13:06.037Z,3384.00
2022-10-06T11:14:06.002Z,5396.00
2022-10-06T11:15:05.999Z,5232.00
2022-10-06T11:16:06.046Z,5108.00
2022-10-06T11:17:05.995Z,5052.00
2022-10-06T11:18:05.974Z,5072.00
2022-10-06T11:19:05.953Z,4984.00
2022-10-06T11:20:05.956Z,2272.00
2022-10-06T11:21:06.934Z,4748.00
2022-10-06T11:22:05.924Z,4752.00
2022-10-06T11:23:05.929Z,4732.00
2022-10-06T11:24:05.907Z,4728.00
2022-10-06T11:26:05.900Z,4596.00
2022-10-06T11:27:05.889Z,4520.00
2022-10-06T11:28:05.939Z,4588.00
2022-10-06T11:29:05.858Z,4536.00
2022-10-06T11:30:05.867Z,4432.00
2022-10-06T11:31:05.894Z,4384.00
2022-10-06T11:32:05.846Z,4412.00
2022-10-06T11:33:05.850Z,4452.00
2022-10-06T11:34:05.810Z,4400.00
2022-10-06T11:35:05.804Z,4344.00
2022-10-06T11:36:05.801Z,4348.00
2022-10-06T11:37:05.797Z,4336.00
2022-10-06T11:38:05.767Z,4224.00
2022-10-06T11:39:05.761Z,4080.00
2022-10-06T11:40:05.748Z,4032.00
2022-10-06T11:41:09.405Z,4252.00
2022-10-06T11:42:06.776Z,4272.00
2022-10-06T11:43:05.722Z,4116.00
2022-10-06T11:44:05.714Z,4300.00
2022-10-06T11:45:05.699Z,4160.00
2022-10-06T11:46:05.748Z,3856.00
2022-10-06T11:47:05.684Z,3744.00
2022-10-06T11:48:05.681Z,3696.00
2022-10-06T11:49:05.659Z,3728.00
2022-10-06T11:50:05.675Z,3780.00
2022-10-06T11:51:05.635Z,3776.00
2022-10-06T11:52:08.072Z,3840.00
2022-10-06T11:53:05.623Z,4032.00
2022-10-06T11:54:05.610Z,3744.00
2022-10-06T11:55:05.601Z,4564.00
2022-10-06T11:56:05.590Z,4424.00
2022-10-06T11:57:05.586Z,3976.00
2022-10-06T11:58:23.431Z,3632.00
2022-10-06T11:59:07.560Z,3632.00
2022-10-06T12:00:05.553Z,3788.00
2022-10-06T12:01:05.545Z,3924.00
2022-10-06T12:02:05.692Z,3960.00
2022-10-06T12:03:05.640Z,4036.00
2022-10-06T12:04:05.966Z,3952.00
2022-10-06T12:05:17.971Z,3668.00
2022-10-06T12:06:06.498Z,3424.00
2022-10-06T12:07:05.492Z,3328.00
2022-10-06T12:08:05.498Z,3312.00
2022-10-06T12:09:05.457Z,3296.00
2022-10-06T12:10:06.729Z,3240.00
2022-10-06T12:11:05.453Z,3228.00
2022-10-06T12:12:05.448Z,3220.00
2022-10-06T12:13:08.089Z,3208.00
2022-10-06T12:17:14.180Z,3204.00
2022-10-06T12:18:07.382Z,3020.00
2022-10-06T12:19:05.370Z,3272.00
2022-10-06T12:20:05.382Z,3132.00
2022-10-06T12:21:05.357Z,3120.00
2022-10-06T12:22:05.349Z,3120.00
2022-10-06T12:23:05.344Z,3088.00
2022-10-06T12:24:05.412Z,3124.00
2022-10-06T12:25:05.311Z,3108.00
2022-10-06T12:26:05.298Z,3060.00
2022-10-06T12:27:05.288Z,3028.00
2022-10-06T12:28:05.380Z,2972.00
2022-10-06T12:29:05.272Z,2936.00
2022-10-06T12:30:05.263Z,2884.00
2022-10-06T12:31:05.307Z,2836.00
2022-10-06T12:32:05.241Z,2816.00
2022-10-06T12:33:05.242Z,2792.00
2022-10-06T12:34:05.220Z,2808.00
2022-10-06T12:35:05.213Z,2788.00
2022-10-06T12:36:05.202Z,2744.00
2022-10-06T12:37:05.192Z,2732.00
2022-10-06T12:38:05.217Z,2724.00
2022-10-06T12:39:05.259Z,2704.00
2022-10-06T12:40:05.214Z,2692.00